sensor_id;sensor_type;location;lat;lon;timestamp;pressure;altitude;pressure_sealevel;temperature;humidity
64086;BME280;50333;47.436;21.390;2022-08-21T00:01:53;99978.31;;;23.87;61.62
64086;BME280;50333;47.436;21.390;2022-08-21T00:04:21;99975.66;;;24.18;60.84
64086;BME280;50333;47.436;21.390;2022-08-21T00:06:56;99976.94;;;24.61;59.30
64086;BME280;50333;47.436;21.390;2022-08-21T00:09:25;99985.44;;;24.74;58.87
64086;BME280;50333;47.436;21.390;2022-08-21T00:11:53;99985.25;;;24.26;60.17
64086;BME280;50333;47.436;21.390;2022-08-21T00:14:20;99983.53;;;23.80;61.85
64086;BME280;50333;47.436;21.390;2022-08-21T00:16:48;99981.13;;;23.71;61.89
64086;BME280;50333;47.436;21.390;2022-08-21T00:19:16;99985.03;;;23.28;63.71
64086;BME280;50333;47.436;21.390;2022-08-21T00:21:44;99970.50;;;23.22;64.60
64086;BME280;50333;47.436;21.390;2022-08-21T00:24:12;99971.69;;;23.24;64.08
64086;BME280;50333;47.436;21.390;2022-08-21T00:26:40;99966.47;;;23.58;63.06
64086;BME280;50333;47.436;21.390;2022-08-21T00:29:08;99966.91;;;24.17;61.13
64086;BME280;50333;47.436;21.390;2022-08-21T00:31:36;99976.66;;;24.40;60.35
64086;BME280;50333;47.436;21.390;2022-08-21T00:34:04;99969.97;;;23.36;63.73
64086;BME280;50333;47.436;21.390;2022-08-21T00:36:32;99968.63;;;24.02;61.95
64086;BME280;50333;47.436;21.390;2022-08-21T00:39:01;99977.00;;;24.35;60.79
64086;BME280;50333;47.436;21.390;2022-08-21T00:41:28;99979.31;;;24.06;61.63
64086;BME280;50333;47.436;21.390;2022-08-21T00:44:08;99978.34;;;23.64;62.94
64086;BME280;50333;47.436;21.390;2022-08-21T00:46:37;99976.63;;;23.76;63.23
64086;BME280;50333;47.436;21.390;2022-08-21T00:49:07;99974.38;;;24.38;60.92
64086;BME280;50333;47.436;21.390;2022-08-21T00:51:49;99964.94;;;24.11;61.56
64086;BME280;50333;47.436;21.390;2022-08-21T00:54:21;99963.19;;;23.68;63.59
64086;BME280;50333;47.436;21.390;2022-08-21T00:56:54;99958.38;;;24.04;62.23
64086;BME280;50333;47.436;21.390;2022-08-21T00:59:28;99947.00;;;24.07;62.14
64086;BME280;50333;47.436;21.390;2022-08-21T01:01:57;99944.06;;;23.86;62.88
64086;BME280;50333;47.436;21.390;2022-08-21T01:04:26;99938.31;;;24.11;62.02
64086;BME280;50333;47.436;21.390;2022-08-21T01:06:53;99937.94;;;23.82;63.23
64086;BME280;50333;47.436;21.390;2022-08-21T01:09:22;99940.37;;;23.94;62.96
64086;BME280;50333;47.436;21.390;2022-08-21T01:11:50;99940.81;;;24.00;62.71
64086;BME280;50333;47.436;21.390;2022-08-21T01:14:19;99939.00;;;23.24;65.66
64086;BME280;50333;47.436;21.390;2022-08-21T01:16:50;99926.81;;;24.06;62.58
64086;BME280;50333;47.436;21.390;2022-08-21T01:19:20;99923.53;;;24.17;62.23
64086;BME280;50333;47.436;21.390;2022-08-21T01:21:48;99921.91;;;24.08;62.61
64086;BME280;50333;47.436;21.390;2022-08-21T01:24:16;99931.44;;;23.79;63.64
64086;BME280;50333;47.436;21.390;2022-08-21T01:26:45;99922.72;;;23.82;63.50
64086;BME280;50333;47.436;21.390;2022-08-21T01:29:30;99913.50;;;24.06;62.65
64086;BME280;50333;47.436;21.390;2022-08-21T01:32:04;99911.41;;;23.89;63.51
64086;BME280;50333;47.436;21.390;2022-08-21T01:34:34;99907.47;;;24.09;62.77
64086;BME280;50333;47.436;21.390;2022-08-21T01:37:04;99898.66;;;23.75;63.81
64086;BME280;50333;47.436;21.390;2022-08-21T01:39:32;99902.31;;;23.63;64.49
64086;BME280;50333;47.436;21.390;2022-08-21T01:42:00;99894.59;;;23.54;64.73
64086;BME280;50333;47.436;21.390;2022-08-21T01:44:28;99899.12;;;23.81;63.85
64086;BME280;50333;47.436;21.390;2022-08-21T01:46:58;99899.00;;;23.73;64.37
64086;BME280;50333;47.436;21.390;2022-08-21T01:49:27;99894.47;;;24.04;62.84
64086;BME280;50333;47.436;21.390;2022-08-21T01:51:56;99893.50;;;23.59;64.41
64086;BME280;50333;47.436;21.390;2022-08-21T01:54:23;99903.53;;;24.00;63.42
64086;BME280;50333;47.436;21.390;2022-08-21T01:56:53;99907.78;;;24.04;63.51
64086;BME280;50333;47.436;21.390;2022-08-21T01:59:23;99912.38;;;23.77;64.37
64086;BME280;50333;47.436;21.390;2022-08-21T02:01:51;99908.31;;;23.83;64.21
64086;BME280;50333;47.436;21.390;2022-08-21T02:04:22;99910.56;;;23.81;64.35
64086;BME280;50333;47.436;21.390;2022-08-21T02:06:50;99906.41;;;23.57;65.12
64086;BME280;50333;47.436;21.390;2022-08-21T02:09:18;99904.97;;;23.63;64.90
64086;BME280;50333;47.436;21.390;2022-08-21T02:11:47;99897.41;;;23.96;63.49
64086;BME280;50333;47.436;21.390;2022-08-21T02:14:15;99898.53;;;23.64;64.42
64086;BME280;50333;47.436;21.390;2022-08-21T02:17:00;99897.38;;;23.62;64.44
64086;BME280;50333;47.436;21.390;2022-08-21T02:19:36;99893.59;;;23.93;63.55
64086;BME280;50333;47.436;21.390;2022-08-21T02:22:09;99897.94;;;23.48;65.64
64086;BME280;50333;47.436;21.390;2022-08-21T02:24:37;99894.97;;;23.03;67.33
64086;BME280;50333;47.436;21.390;2022-08-21T02:27:22;99899.78;;;23.17;67.17
64086;BME280;50333;47.436;21.390;2022-08-21T02:29:56;99883.47;;;23.76;65.35
64086;BME280;50333;47.436;21.390;2022-08-21T02:32:24;99886.13;;;23.76;65.76
64086;BME280;50333;47.436;21.390;2022-08-21T02:34:53;99885.53;;;23.89;65.57
64086;BME280;50333;47.436;21.390;2022-08-21T02:37:21;99886.31;;;23.90;65.60
64086;BME280;50333;47.436;21.390;2022-08-21T02:39:50;99895.41;;;23.32;68.50
64086;BME280;50333;47.436;21.390;2022-08-21T02:42:19;99893.69;;;23.17;68.83
64086;BME280;50333;47.436;21.390;2022-08-21T02:44:46;99891.91;;;23.54;68.35
64086;BME280;50333;47.436;21.390;2022-08-21T02:47:15;99883.72;;;23.10;69.47
64086;BME280;50333;47.436;21.390;2022-08-21T02:49:43;99884.47;;;23.10;70.08
64086;BME280;50333;47.436;21.390;2022-08-21T02:52:11;99875.50;;;22.95;71.22
64086;BME280;50333;47.436;21.390;2022-08-21T02:54:39;99876.78;;;23.05;71.18
64086;BME280;50333;47.436;21.390;2022-08-21T02:57:07;99880.00;;;23.18;70.74
64086;BME280;50333;47.436;21.390;2022-08-21T02:59:35;99867.75;;;23.10;71.12
64086;BME280;50333;47.436;21.390;2022-08-21T03:02:03;99853.41;;;23.18;71.65
64086;BME280;50333;47.436;21.390;2022-08-21T03:04:31;99864.22;;;23.29;70.95
64086;BME280;50333;47.436;21.390;2022-08-21T03:06:59;99857.47;;;22.62;73.09
64086;BME280;50333;47.436;21.390;2022-08-21T03:09:28;99856.87;;;22.95;72.21
64086;BME280;50333;47.436;21.390;2022-08-21T03:11:55;99850.97;;;23.32;70.95
64086;BME280;50333;47.436;21.390;2022-08-21T03:14:23;99853.69;;;23.66;69.32
64086;BME280;50333;47.436;21.390;2022-08-21T03:16:51;99847.53;;;23.59;69.84
64086;BME280;50333;47.436;21.390;2022-08-21T03:19:19;99850.53;;;23.04;71.95
64086;BME280;50333;47.436;21.390;2022-08-21T03:21:48;99859.06;;;23.13;71.54
64086;BME280;50333;47.436;21.390;2022-08-21T03:24:16;99842.97;;;23.29;70.88
64086;BME280;50333;47.436;21.390;2022-08-21T03:26:48;99849.22;;;23.44;69.86
64086;BME280;50333;47.436;21.390;2022-08-21T03:29:16;99847.41;;;23.21;71.30
64086;BME280;50333;47.436;21.390;2022-08-21T03:31:44;99854.13;;;23.42;70.37
64086;BME280;50333;47.436;21.390;2022-08-21T03:34:12;99858.00;;;23.44;70.61
64086;BME280;50333;47.436;21.390;2022-08-21T03:36:40;99860.75;;;23.02;71.99
64086;BME280;50333;47.436;21.390;2022-08-21T03:39:08;99854.63;;;23.21;71.63
64086;BME280;50333;47.436;21.390;2022-08-21T03:41:36;99857.88;;;23.10;72.03
64086;BME280;50333;47.436;21.390;2022-08-21T03:44:04;99868.22;;;22.92;72.98
64086;BME280;50333;47.436;21.390;2022-08-21T03:46:31;99870.81;;;22.66;73.75
64086;BME280;50333;47.436;21.390;2022-08-21T03:48:59;99872.41;;;23.43;71.00
64086;BME280;50333;47.436;21.390;2022-08-21T03:51:27;99882.28;;;23.43;70.91
64086;BME280;50333;47.436;21.390;2022-08-21T03:53:55;99883.72;;;23.10;72.42
64086;BME280;50333;47.436;21.390;2022-08-21T03:56:23;99887.94;;;22.91;72.66
64086;BME280;50333;47.436;21.390;2022-08-21T03:58:51;99892.56;;;22.94;72.91
64086;BME280;50333;47.436;21.390;2022-08-21T04:01:19;99897.41;;;23.12;72.36
64086;BME280;50333;47.436;21.390;2022-08-21T04:03:47;99914.09;;;23.62;70.99
64086;BME280;50333;47.436;21.390;2022-08-21T04:06:15;99908.06;;;23.65;70.28
64086;BME280;50333;47.436;21.390;2022-08-21T04:08:42;99920.94;;;23.37;70.92
64086;BME280;50333;47.436;21.390;2022-08-21T04:11:10;99923.56;;;22.87;73.38
64086;BME280;50333;47.436;21.390;2022-08-21T04:13:38;99931.63;;;23.13;72.65
64086;BME280;50333;47.436;21.390;2022-08-21T04:16:12;99929.59;;;22.84;73.77
64086;BME280;50333;47.436;21.390;2022-08-21T04:18:40;99926.44;;;22.78;74.35
64086;BME280;50333;47.436;21.390;2022-08-21T04:21:10;99934.50;;;22.82;74.27
64086;BME280;50333;47.436;21.390;2022-08-21T04:23:40;99945.72;;;23.18;73.00
64086;BME280;50333;47.436;21.390;2022-08-21T04:26:08;99947.47;;;23.06;72.58
64086;BME280;50333;47.436;21.390;2022-08-21T04:28:36;99949.03;;;23.11;73.10
64086;BME280;50333;47.436;21.390;2022-08-21T04:31:04;99944.22;;;23.17;73.22
64086;BME280;50333;47.436;21.390;2022-08-21T04:33:32;99955.28;;;22.76;73.82
64086;BME280;50333;47.436;21.390;2022-08-21T04:36:00;99954.81;;;22.93;73.79
64086;BME280;50333;47.436;21.390;2022-08-21T04:38:29;99954.84;;;23.17;73.09
64086;BME280;50333;47.436;21.390;2022-08-21T04:41:04;99964.47;;;23.25;72.72
64086;BME280;50333;47.436;21.390;2022-08-21T04:43:34;99962.66;;;23.56;71.73
64086;BME280;50333;47.436;21.390;2022-08-21T04:46:02;99961.81;;;23.25;72.72
64086;BME280;50333;47.436;21.390;2022-08-21T04:48:30;99958.84;;;23.30;72.61
64086;BME280;50333;47.436;21.390;2022-08-21T04:51:11;99962.34;;;23.34;72.70
64086;BME280;50333;47.436;21.390;2022-08-21T04:53:49;99959.44;;;23.43;72.33
64086;BME280;50333;47.436;21.390;2022-08-21T04:56:24;99959.22;;;23.55;72.11
64086;BME280;50333;47.436;21.390;2022-08-21T04:58:55;99957.84;;;23.38;72.86
64086;BME280;50333;47.436;21.390;2022-08-21T05:01:27;99958.19;;;23.63;71.71
64086;BME280;50333;47.436;21.390;2022-08-21T05:03:58;99950.00;;;23.76;71.51
64086;BME280;50333;47.436;21.390;2022-08-21T05:06:31;99946.34;;;23.30;73.50
64086;BME280;50333;47.436;21.390;2022-08-21T05:09:00;99937.66;;;23.10;74.22
64086;BME280;50333;47.436;21.390;2022-08-21T05:11:30;99941.28;;;23.02;74.72
64086;BME280;50333;47.436;21.390;2022-08-21T05:13:59;99930.78;;;22.86;75.57
64086;BME280;50333;47.436;21.390;2022-08-21T05:16:27;99933.19;;;23.18;74.05
64086;BME280;50333;47.436;21.390;2022-08-21T05:19:08;99919.59;;;23.23;74.02
64086;BME280;50333;47.436;21.390;2022-08-21T05:21:39;99930.44;;;23.11;74.68
64086;BME280;50333;47.436;21.390;2022-08-21T05:24:08;99928.78;;;23.26;74.30
64086;BME280;50333;47.436;21.390;2022-08-21T05:26:35;99925.16;;;23.14;74.88
64086;BME280;50333;47.436;21.390;2022-08-21T05:29:14;99920.94;;;23.10;75.23
64086;BME280;50333;47.436;21.390;2022-08-21T05:31:43;99914.56;;;23.41;73.78
64086;BME280;50333;47.436;21.390;2022-08-21T05:34:12;99910.84;;;23.49;73.44
64086;BME280;50333;47.436;21.390;2022-08-21T05:36:44;99905.66;;;23.57;73.06
64086;BME280;50333;47.436;21.390;2022-08-21T05:39:12;99908.09;;;23.42;73.79
64086;BME280;50333;47.436;21.390;2022-08-21T05:41:39;99899.16;;;23.54;73.58
64086;BME280;50333;47.436;21.390;2022-08-21T05:44:08;99898.12;;;23.62;73.30
64086;BME280;50333;47.436;21.390;2022-08-21T05:46:37;99894.47;;;23.74;72.52
64086;BME280;50333;47.436;21.390;2022-08-21T05:49:04;99896.94;;;23.86;72.01
64086;BME280;50333;47.436;21.390;2022-08-21T05:51:32;99889.88;;;24.01;71.19
64086;BME280;50333;47.436;21.390;2022-08-21T05:54:00;99894.41;;;23.97;71.28
64086;BME280;50333;47.436;21.390;2022-08-21T05:56:32;99894.72;;;23.92;72.00
64086;BME280;50333;47.436;21.390;2022-08-21T05:59:00;99893.34;;;24.05;71.34
64086;BME280;50333;47.436;21.390;2022-08-21T06:01:28;99899.88;;;24.12;71.17
64086;BME280;50333;47.436;21.390;2022-08-21T06:03:58;99896.97;;;23.90;71.96
64086;BME280;50333;47.436;21.390;2022-08-21T06:06:27;99893.75;;;24.07;71.40
64086;BME280;50333;47.436;21.390;2022-08-21T06:08:55;99891.69;;;23.94;71.66
64086;BME280;50333;47.436;21.390;2022-08-21T06:11:23;99897.28;;;24.19;70.81
64086;BME280;50333;47.436;21.390;2022-08-21T06:13:55;99893.19;;;24.25;70.61
64086;BME280;50333;47.436;21.390;2022-08-21T06:16:25;99889.81;;;24.32;70.64
64086;BME280;50333;47.436;21.390;2022-08-21T06:18:53;99888.53;;;24.18;70.98
64086;BME280;50333;47.436;21.390;2022-08-21T06:21:24;99890.25;;;24.37;70.26
64086;BME280;50333;47.436;21.390;2022-08-21T06:23:51;99894.09;;;24.43;70.14
64086;BME280;50333;47.436;21.390;2022-08-21T06:26:19;99892.16;;;24.37;70.17
64086;BME280;50333;47.436;21.390;2022-08-21T06:28:48;99888.31;;;24.34;70.23
64086;BME280;50333;47.436;21.390;2022-08-21T06:31:20;99888.88;;;24.51;69.58
64086;BME280;50333;47.436;21.390;2022-08-21T06:33:49;99890.81;;;24.54;69.22
64086;BME280;50333;47.436;21.390;2022-08-21T06:36:18;99888.03;;;24.43;69.72
64086;BME280;50333;47.436;21.390;2022-08-21T06:38:47;99894.41;;;24.35;70.28
64086;BME280;50333;47.436;21.390;2022-08-21T06:41:19;99900.63;;;24.46;69.62
64086;BME280;50333;47.436;21.390;2022-08-21T06:43:50;99902.37;;;23.97;70.76
64086;BME280;50333;47.436;21.390;2022-08-21T06:46:18;99903.69;;;24.11;71.23
64086;BME280;50333;47.436;21.390;2022-08-21T06:48:46;99919.53;;;24.34;70.75
64086;BME280;50333;47.436;21.390;2022-08-21T06:51:14;99927.03;;;24.58;70.32
64086;BME280;50333;47.436;21.390;2022-08-21T06:53:42;99931.13;;;24.52;70.74
64086;BME280;50333;47.436;21.390;2022-08-21T06:56:10;99929.16;;;24.45;70.50
64086;BME280;50333;47.436;21.390;2022-08-21T06:58:38;99932.75;;;24.60;70.39
64086;BME280;50333;47.436;21.390;2022-08-21T07:01:07;99936.16;;;24.57;69.94
64086;BME280;50333;47.436;21.390;2022-08-21T07:03:37;99937.28;;;24.56;69.90
64086;BME280;50333;47.436;21.390;2022-08-21T07:06:07;99935.78;;;24.59;69.84
64086;BME280;50333;47.436;21.390;2022-08-21T07:08:37;99942.91;;;24.89;68.66
64086;BME280;50333;47.436;21.390;2022-08-21T07:11:20;99955.91;;;24.94;68.34
64086;BME280;50333;47.436;21.390;2022-08-21T07:13:49;99959.25;;;24.83;68.55
64086;BME280;50333;47.436;21.390;2022-08-21T07:16:22;99947.72;;;24.72;69.04
64086;BME280;50333;47.436;21.390;2022-08-21T07:18:50;99952.06;;;24.88;68.11
64086;BME280;50333;47.436;21.390;2022-08-21T07:21:18;99956.53;;;24.42;69.57
64086;BME280;50333;47.436;21.390;2022-08-21T07:23:52;99946.28;;;24.44;69.46
64086;BME280;50333;47.436;21.390;2022-08-21T07:26:22;99956.91;;;24.78;68.55
64086;BME280;50333;47.436;21.390;2022-08-21T07:28:50;99959.00;;;24.96;68.32
64086;BME280;50333;47.436;21.390;2022-08-21T07:31:22;99957.38;;;24.88;67.42
64086;BME280;50333;47.436;21.390;2022-08-21T07:33:50;99962.16;;;25.12;66.43
64086;BME280;50333;47.436;21.390;2022-08-21T07:36:18;99965.81;;;24.93;66.27
64086;BME280;50333;47.436;21.390;2022-08-21T07:38:46;99955.81;;;24.83;67.90
64086;BME280;50333;47.436;21.390;2022-08-21T07:41:22;99962.06;;;24.98;66.37
64086;BME280;50333;47.436;21.390;2022-08-21T07:43:51;99967.50;;;25.12;66.22
64086;BME280;50333;47.436;21.390;2022-08-21T07:46:19;99962.25;;;25.23;66.72
64086;BME280;50333;47.436;21.390;2022-08-21T07:48:47;99956.25;;;24.89;67.83
64086;BME280;50333;47.436;21.390;2022-08-21T07:51:17;99953.13;;;24.79;68.79
64086;BME280;50333;47.436;21.390;2022-08-21T07:53:51;99951.44;;;25.05;67.79
64086;BME280;50333;47.436;21.390;2022-08-21T07:56:19;99943.84;;;25.11;67.13
64086;BME280;50333;47.436;21.390;2022-08-21T07:58:51;99957.91;;;25.04;68.04
64086;BME280;50333;47.436;21.390;2022-08-21T08:01:19;99957.66;;;25.23;66.99
64086;BME280;50333;47.436;21.390;2022-08-21T08:03:47;99952.88;;;24.95;68.40
64086;BME280;50333;47.436;21.390;2022-08-21T08:06:16;99961.50;;;24.81;66.62
64086;BME280;50333;47.436;21.390;2022-08-21T08:08:46;99953.84;;;25.21;66.78
64086;BME280;50333;47.436;21.390;2022-08-21T08:11:14;99949.59;;;25.13;66.18
64086;BME280;50333;47.436;21.390;2022-08-21T08:13:47;99956.03;;;25.08;67.58
64086;BME280;50333;47.436;21.390;2022-08-21T08:16:16;99952.00;;;25.29;66.59
64086;BME280;50333;47.436;21.390;2022-08-21T08:18:45;99952.00;;;25.29;66.07
64086;BME280;50333;47.436;21.390;2022-08-21T08:21:14;99951.66;;;25.34;65.71
64086;BME280;50333;47.436;21.390;2022-08-21T08:23:42;99959.31;;;25.35;66.05
64086;BME280;50333;47.436;21.390;2022-08-21T08:26:12;99949.31;;;25.25;66.82
64086;BME280;50333;47.436;21.390;2022-08-21T08:28:40;99954.84;;;25.02;67.01
64086;BME280;50333;47.436;21.390;2022-08-21T08:31:08;99948.81;;;25.12;67.15
64086;BME280;50333;47.436;21.390;2022-08-21T08:33:36;99952.69;;;25.18;67.43
64086;BME280;50333;47.436;21.390;2022-08-21T08:36:04;99961.44;;;24.74;68.21
64086;BME280;50333;47.436;21.390;2022-08-21T08:38:37;99962.47;;;24.62;68.99
64086;BME280;50333;47.436;21.390;2022-08-21T08:41:13;99962.59;;;24.05;70.00
64086;BME280;50333;47.436;21.390;2022-08-21T08:43:50;99961.66;;;24.55;69.06
64086;BME280;50333;47.436;21.390;2022-08-21T08:46:28;99963.28;;;24.67;68.65
64086;BME280;50333;47.436;21.390;2022-08-21T08:49:05;99970.97;;;24.41;69.61
64086;BME280;50333;47.436;21.390;2022-08-21T08:54:37;99964.16;;;24.44;70.39
64086;BME280;50333;47.436;21.390;2022-08-21T08:57:15;99965.66;;;24.75;69.95
64086;BME280;50333;47.436;21.390;2022-08-21T08:59:48;99964.78;;;24.64;68.96
64086;BME280;50333;47.436;21.390;2022-08-21T09:02:16;99969.19;;;24.19;71.35
64086;BME280;50333;47.436;21.390;2022-08-21T09:04:47;99969.91;;;24.83;69.18
64086;BME280;50333;47.436;21.390;2022-08-21T09:21:11;99970.09;;;24.30;69.38
64086;BME280;50333;47.436;21.390;2022-08-21T09:23:56;99971.84;;;24.49;68.64
64086;BME280;50333;47.436;21.390;2022-08-21T09:26:43;99966.72;;;24.33;69.63
64086;BME280;50333;47.436;21.390;2022-08-21T09:29:16;99961.22;;;24.53;68.52
64086;BME280;50333;47.436;21.390;2022-08-21T09:31:45;99959.28;;;24.50;69.24
64086;BME280;50333;47.436;21.390;2022-08-21T09:34:25;99963.59;;;24.58;67.80
64086;BME280;50333;47.436;21.390;2022-08-21T09:36:54;99958.56;;;24.94;67.80
64086;BME280;50333;47.436;21.390;2022-08-21T09:39:29;99954.31;;;24.86;68.32
64086;BME280;50333;47.436;21.390;2022-08-21T09:42:01;99950.50;;;24.87;67.67
64086;BME280;50333;47.436;21.390;2022-08-21T09:44:36;99952.56;;;25.04;65.43
64086;BME280;50333;47.436;21.390;2022-08-21T09:47:08;99950.72;;;25.08;65.27
64086;BME280;50333;47.436;21.390;2022-08-21T09:49:39;99951.06;;;25.07;65.89
64086;BME280;50333;47.436;21.390;2022-08-21T09:52:22;99948.37;;;25.03;66.23
64086;BME280;50333;47.436;21.390;2022-08-21T09:54:54;99951.94;;;25.21;66.30
64086;BME280;50333;47.436;21.390;2022-08-21T09:57:26;99949.00;;;25.34;64.85
64086;BME280;50333;47.436;21.390;2022-08-21T10:03:08;99943.62;;;25.30;63.33
64086;BME280;50333;47.436;21.390;2022-08-21T10:05:37;99952.00;;;25.25;63.12
64086;BME280;50333;47.436;21.390;2022-08-21T10:08:17;99947.91;;;25.42;62.95
64086;BME280;50333;47.436;21.390;2022-08-21T10:10:45;99940.34;;;25.55;63.22
64086;BME280;50333;47.436;21.390;2022-08-21T10:16:23;99951.75;;;25.45;63.71
64086;BME280;50333;47.436;21.390;2022-08-21T10:40:42;99940.41;;;25.58;61.86
64086;BME280;50333;47.436;21.390;2022-08-21T10:51:38;99930.78;;;25.43;61.82
64086;BME280;50333;47.436;21.390;2022-08-21T10:56:54;99920.19;;;25.57;62.75
64086;BME280;50333;47.436;21.390;2022-08-21T10:59:34;99917.37;;;26.09;61.09
64086;BME280;50333;47.436;21.390;2022-08-21T11:04:57;99923.88;;;26.19;60.07
64086;BME280;50333;47.436;21.390;2022-08-21T11:10:22;99906.44;;;26.65;57.99
64086;BME280;50333;47.436;21.390;2022-08-21T11:13:03;99912.91;;;26.57;58.44
64086;BME280;50333;47.436;21.390;2022-08-21T11:15:39;99910.97;;;26.46;58.58
64086;BME280;50333;47.436;21.390;2022-08-21T11:20:50;99906.03;;;26.66;58.08
64086;BME280;50333;47.436;21.390;2022-08-21T11:23:46;99910.25;;;26.75;56.31
64086;BME280;50333;47.436;21.390;2022-08-21T11:26:29;99912.88;;;26.49;57.69
64086;BME280;50333;47.436;21.390;2022-08-21T11:29:23;99912.53;;;26.62;56.72
64086;BME280;50333;47.436;21.390;2022-08-21T11:51:20;99879.66;;;26.47;56.10
64086;BME280;50333;47.436;21.390;2022-08-21T11:56:25;99879.69;;;26.90;55.46
64086;BME280;50333;47.436;21.390;2022-08-21T11:58:59;99880.81;;;26.39;57.53
64086;BME280;50333;47.436;21.390;2022-08-21T12:01:36;99881.13;;;26.15;58.37
64086;BME280;50333;47.436;21.390;2022-08-21T12:04:16;99864.75;;;26.31;57.54
64086;BME280;50333;47.436;21.390;2022-08-21T12:06:45;99862.09;;;26.60;57.29
64086;BME280;50333;47.436;21.390;2022-08-21T12:14:43;99854.06;;;26.60;56.34
64086;BME280;50333;47.436;21.390;2022-08-21T12:17:35;99856.75;;;26.82;56.05
64086;BME280;50333;47.436;21.390;2022-08-21T12:20:36;99851.03;;;27.05;54.35
64086;BME280;50333;47.436;21.390;2022-08-21T12:26:16;99842.53;;;27.42;53.63
64086;BME280;50333;47.436;21.390;2022-08-21T12:28:45;99840.19;;;27.52;53.94
64086;BME280;50333;47.436;21.390;2022-08-21T12:31:27;99841.47;;;26.97;54.79
64086;BME280;50333;47.436;21.390;2022-08-21T12:34:01;99836.06;;;27.22;53.59
64086;BME280;50333;47.436;21.390;2022-08-21T12:36:43;99834.53;;;27.21;53.30
64086;BME280;50333;47.436;21.390;2022-08-21T12:39:15;99831.03;;;27.49;52.93
64086;BME280;50333;47.436;21.390;2022-08-21T12:41:51;99834.19;;;27.04;52.91
64086;BME280;50333;47.436;21.390;2022-08-21T12:44:37;99823.84;;;27.14;53.59
64086;BME280;50333;47.436;21.390;2022-08-21T12:47:15;99825.66;;;27.53;51.76
64086;BME280;50333;47.436;21.390;2022-08-21T12:49:52;99821.44;;;27.52;51.62
64086;BME280;50333;47.436;21.390;2022-08-21T12:52:33;99823.88;;;26.96;52.37
64086;BME280;50333;47.436;21.390;2022-08-21T12:55:11;99813.97;;;27.00;53.01
64086;BME280;50333;47.436;21.390;2022-08-21T12:57:40;99806.66;;;27.07;53.32
64086;BME280;50333;47.436;21.390;2022-08-21T13:00:11;99817.00;;;27.02;54.63
64086;BME280;50333;47.436;21.390;2022-08-21T13:02:48;99801.63;;;27.38;53.59
64086;BME280;50333;47.436;21.390;2022-08-21T13:05:27;99805.31;;;27.66;52.01
64086;BME280;50333;47.436;21.390;2022-08-21T13:07:57;99802.97;;;27.75;51.27
64086;BME280;50333;47.436;21.390;2022-08-21T13:10:30;99807.03;;;27.27;53.34
64086;BME280;50333;47.436;21.390;2022-08-21T13:13:03;99802.81;;;27.16;53.25
64086;BME280;50333;47.436;21.390;2022-08-21T13:15:41;99807.75;;;27.24;54.12
64086;BME280;50333;47.436;21.390;2022-08-21T13:18:23;99808.56;;;27.18;54.32
64086;BME280;50333;47.436;21.390;2022-08-21T13:21:06;99802.47;;;27.14;54.42
64086;BME280;50333;47.436;21.390;2022-08-21T13:23:34;99799.28;;;27.48;53.08
64086;BME280;50333;47.436;21.390;2022-08-21T13:26:15;99797.38;;;27.48;53.02
64086;BME280;50333;47.436;21.390;2022-08-21T13:28:46;99806.59;;;27.43;53.07
64086;BME280;50333;47.436;21.390;2022-08-21T13:31:29;99803.75;;;27.72;52.93
64086;BME280;50333;47.436;21.390;2022-08-21T13:33:59;99792.16;;;27.97;52.52
64086;BME280;50333;47.436;21.390;2022-08-21T13:36:32;99789.69;;;27.57;53.27
64086;BME280;50333;47.436;21.390;2022-08-21T13:39:15;99787.69;;;27.72;52.93
64086;BME280;50333;47.436;21.390;2022-08-21T13:41:46;99787.19;;;27.88;52.62
64086;BME280;50333;47.436;21.390;2022-08-21T13:44:24;99786.03;;;27.96;52.27
64086;BME280;50333;47.436;21.390;2022-08-21T13:47:01;99778.41;;;27.91;52.24
64086;BME280;50333;47.436;21.390;2022-08-21T13:49:36;99777.72;;;27.76;51.77
64086;BME280;50333;47.436;21.390;2022-08-21T13:52:18;99777.75;;;27.69;52.36
64086;BME280;50333;47.436;21.390;2022-08-21T13:55:33;99775.97;;;27.41;53.41
64086;BME280;50333;47.436;21.390;2022-08-21T13:57:59;99780.94;;;27.42;53.02
64086;BME280;50333;47.436;21.390;2022-08-21T14:00:31;99777.69;;;27.83;51.75
64086;BME280;50333;47.436;21.390;2022-08-21T14:03:10;99774.28;;;27.76;52.58
64086;BME280;50333;47.436;21.390;2022-08-21T14:05:44;99768.09;;;27.82;53.24
64086;BME280;50333;47.436;21.390;2022-08-21T14:08:27;99767.88;;;27.59;53.27
64086;BME280;50333;47.436;21.390;2022-08-21T14:10:57;99770.75;;;27.86;52.06
64086;BME280;50333;47.436;21.390;2022-08-21T14:19:07;99779.16;;;27.92;51.07
64086;BME280;50333;47.436;21.390;2022-08-21T14:21:38;99769.41;;;27.56;52.32
64086;BME280;50333;47.436;21.390;2022-08-21T14:26:53;99769.38;;;27.63;52.42
64086;BME280;50333;47.436;21.390;2022-08-21T14:29:25;99759.75;;;27.73;52.38
64086;BME280;50333;47.436;21.390;2022-08-21T14:31:58;99757.50;;;27.68;52.34
64086;BME280;50333;47.436;21.390;2022-08-21T14:34:28;99752.59;;;27.56;52.62
64086;BME280;50333;47.436;21.390;2022-08-21T14:37:02;99759.00;;;27.69;52.24
64086;BME280;50333;47.436;21.390;2022-08-21T14:39:30;99754.12;;;27.53;52.52
64086;BME280;50333;47.436;21.390;2022-08-21T14:41:59;99752.59;;;27.56;52.28
64086;BME280;50333;47.436;21.390;2022-08-21T14:44:28;99754.19;;;27.42;52.40
64086;BME280;50333;47.436;21.390;2022-08-21T14:46:56;99753.38;;;27.49;52.51
64086;BME280;50333;47.436;21.390;2022-08-21T14:49:26;99743.16;;;27.26;53.15
64086;BME280;50333;47.436;21.390;2022-08-21T14:51:56;99744.31;;;27.18;53.53
64086;BME280;50333;47.436;21.390;2022-08-21T14:54:27;99751.94;;;27.30;52.97
64086;BME280;50333;47.436;21.390;2022-08-21T14:57:02;99752.72;;;27.20;53.01